createdAt,value
2018-06-12T00:00:47.543Z,20.33
2018-06-12T00:03:15.976Z,19.90
2018-06-12T00:05:44.802Z,18.77
2018-06-12T00:08:13.652Z,17.63
2018-06-12T00:10:42.066Z,18.03
2018-06-12T00:13:10.858Z,16.27
2018-06-12T00:15:39.678Z,17.57
2018-06-12T00:18:08.414Z,17.13
2018-06-12T00:20:37.284Z,18.77
2018-06-12T00:23:05.692Z,17.63
2018-06-12T00:25:34.547Z,21.23
2018-06-12T00:28:03.024Z,18.37
2018-06-12T00:30:31.846Z,17.33
2018-06-12T00:33:00.595Z,16.20
2018-06-12T00:35:29.407Z,20.57
2018-06-12T00:37:57.780Z,20.63
2018-06-12T00:40:26.156Z,19.43
2018-06-12T00:42:54.608Z,22.17
2018-06-12T00:45:23.399Z,17.80
2018-06-12T00:47:51.787Z,19.40
2018-06-12T00:50:20.239Z,18.37
2018-06-12T00:52:49.013Z,16.00
2018-06-12T00:55:17.862Z,20.53
2018-06-12T00:57:46.277Z,18.97
2018-06-12T01:00:15.180Z,19.37
2018-06-12T01:02:44.142Z,19.40
2018-06-12T01:05:12.929Z,21.57
2018-06-12T01:07:41.737Z,18.70
2018-06-12T01:10:10.185Z,18.43
2018-06-12T01:12:38.627Z,18.40
2018-06-12T01:15:07.566Z,18.70
2018-06-12T01:17:36.038Z,19.93
2018-06-12T01:20:04.434Z,22.40
2018-06-12T01:22:33.240Z,20.57
2018-06-12T01:25:01.703Z,18.30
2018-06-12T01:27:30.155Z,22.00
2018-06-12T01:29:58.561Z,18.77
2018-06-12T01:32:27.325Z,19.17
2018-06-12T01:34:56.144Z,18.73
2018-06-12T01:37:24.952Z,23.67
2018-06-12T01:39:53.784Z,21.07
2018-06-12T01:42:22.174Z,22.00
2018-06-12T01:44:50.918Z,17.50
2018-06-12T01:47:19.319Z,20.50
2018-06-12T01:49:48.118Z,22.57
2018-06-12T01:52:16.981Z,19.97
2018-06-12T01:54:45.795Z,17.60
2018-06-12T01:57:14.759Z,20.13
2018-06-12T01:59:43.177Z,17.40
2018-06-12T02:02:12.030Z,18.83
2018-06-12T02:04:40.836Z,21.67
2018-06-12T02:07:09.619Z,21.70
2018-06-12T02:09:38.466Z,16.40
2018-06-12T02:12:07.240Z,17.93
2018-06-12T02:14:36.039Z,22.43
2018-06-12T02:17:04.878Z,19.73
2018-06-12T02:19:33.675Z,17.00
2018-06-12T02:22:02.503Z,18.73
2018-06-12T02:24:30.955Z,15.47
2018-06-12T02:26:59.684Z,17.90
2018-06-12T02:29:28.103Z,17.23
2018-06-12T02:31:56.873Z,16.50
2018-06-12T02:34:25.357Z,15.33
2018-06-12T02:36:53.769Z,18.70
2018-06-12T02:39:22.574Z,15.97
2018-06-12T02:41:51.352Z,17.17
2018-06-12T02:44:19.763Z,14.30
2018-06-12T02:46:48.563Z,15.93
2018-06-12T02:49:17.023Z,17.00
2018-06-12T02:51:45.852Z,14.57
2018-06-12T02:54:14.257Z,22.80
2018-06-12T02:56:42.684Z,16.07
2018-06-12T02:59:11.235Z,18.17
2018-06-12T03:01:39.735Z,16.50
2018-06-12T03:04:08.130Z,16.50
2018-06-12T03:06:36.517Z,17.67
2018-06-12T03:09:08.488Z,17.30
2018-06-12T03:11:37.447Z,14.20
2018-06-12T03:14:06.311Z,17.60
2018-06-12T03:16:35.129Z,17.50
2018-06-12T03:19:03.955Z,17.40
2018-06-12T03:21:32.330Z,16.47
2018-06-12T03:24:01.148Z,18.87
2018-06-12T03:26:29.563Z,16.30
2018-06-12T03:28:57.988Z,18.07
2018-06-12T03:31:26.789Z,17.93
2018-06-12T03:33:55.167Z,15.53
2018-06-12T03:36:23.650Z,19.77
2018-06-12T03:38:52.054Z,14.87
2018-06-12T03:41:20.855Z,17.77
2018-06-12T03:43:49.672Z,17.50
2018-06-12T03:46:18.235Z,15.57
2018-06-12T03:48:47.012Z,17.47
2018-06-12T03:51:15.743Z,15.23
2018-06-12T03:53:44.519Z,14.33
2018-06-12T03:56:13.276Z,15.93
2018-06-12T03:58:41.704Z,15.60
2018-06-12T04:01:10.118Z,13.63
2018-06-12T04:03:38.979Z,16.13
2018-06-12T04:06:07.339Z,18.20
2018-06-12T04:08:36.267Z,14.47
2018-06-12T04:11:05.083Z,13.50
2018-06-12T04:13:33.457Z,15.40
2018-06-12T04:16:02.237Z,11.07
2018-06-12T04:18:30.670Z,15.40
2018-06-12T04:20:59.039Z,14.97
2018-06-12T04:23:27.841Z,13.17
2018-06-12T04:25:56.629Z,13.03
2018-06-12T04:28:25.420Z,12.47
2018-06-12T04:30:53.868Z,16.50
2018-06-12T04:33:22.262Z,15.70
2018-06-12T04:35:51.083Z,10.17
2018-06-12T04:38:19.868Z,11.73
2018-06-12T04:40:48.310Z,10.43
2018-06-12T04:43:17.149Z,10.00
2018-06-12T04:45:45.561Z,12.20
2018-06-12T04:48:14.081Z,12.10
2018-06-12T04:50:42.451Z,14.17
2018-06-12T04:53:10.833Z,11.33
2018-06-12T04:55:40.019Z,9.13
2018-06-12T04:58:09.288Z,12.37
2018-06-12T05:00:37.689Z,14.37
2018-06-12T05:03:06.121Z,11.50
2018-06-12T05:05:34.568Z,14.83
2018-06-12T05:08:03.357Z,11.93
2018-06-12T05:10:32.188Z,14.37
2018-06-12T05:13:00.602Z,14.73
2018-06-12T05:15:28.972Z,14.07
2018-06-12T05:17:57.786Z,13.10
2018-06-12T05:20:26.563Z,12.57
2018-06-12T05:22:55.345Z,13.27
2018-06-12T05:25:24.131Z,12.83
2018-06-12T05:27:52.959Z,13.00
2018-06-12T05:57:26.886Z,6.47
2018-06-12T05:59:55.874Z,7.27
2018-06-12T06:02:24.695Z,7.70
2018-06-12T06:04:53.085Z,8.00
2018-06-12T06:07:21.896Z,9.13
2018-06-12T06:09:50.714Z,12.00
2018-06-12T06:12:20.085Z,7.57
2018-06-12T06:14:48.461Z,7.03
2018-06-12T06:17:16.870Z,6.93
2018-06-12T06:19:45.307Z,9.43
2018-06-12T06:22:14.118Z,10.10
2018-06-12T06:24:42.943Z,9.10
2018-06-12T06:27:11.746Z,10.67
2018-06-12T06:29:40.572Z,9.17
2018-06-12T06:32:08.960Z,4.87
2018-06-12T06:34:37.837Z,7.97
2018-06-12T06:59:17.177Z,9.43
2018-06-12T07:01:46.005Z,7.60
2018-06-12T07:04:14.810Z,10.63
2018-06-12T07:06:43.602Z,7.73
2018-06-12T07:09:12.046Z,9.47
2018-06-12T07:31:24.291Z,7.47
2018-06-12T07:33:53.078Z,9.00
2018-06-12T07:36:21.485Z,6.27
2018-06-12T07:38:50.325Z,7.20
2018-06-12T07:41:18.724Z,5.80
2018-06-12T07:43:47.490Z,8.33
2018-06-12T07:46:16.291Z,7.37
2018-06-12T07:48:44.718Z,8.53
2018-06-12T07:51:13.137Z,7.83
2018-06-12T07:53:41.555Z,6.07
2018-06-12T07:56:10.334Z,7.60
2018-06-12T07:58:39.114Z,10.13
2018-06-12T08:01:08.018Z,10.00
2018-06-12T08:03:36.877Z,7.83
2018-06-12T08:06:05.638Z,9.40
2018-06-12T08:08:34.464Z,6.60
2018-06-12T08:11:03.234Z,5.80
2018-06-12T08:13:32.173Z,8.93
2018-06-12T08:16:00.934Z,5.13
2018-06-12T08:18:29.727Z,6.07
2018-06-12T08:20:58.550Z,4.97
2018-06-12T08:23:27.355Z,8.63
2018-06-12T08:25:55.741Z,8.80
2018-06-12T08:28:24.684Z,7.03
2018-06-12T08:30:53.063Z,9.77
2018-06-12T08:33:21.848Z,9.53
2018-06-12T08:35:50.284Z,6.07
2018-06-12T08:38:19.145Z,6.77
2018-06-12T08:40:47.572Z,4.47
2018-06-12T08:43:15.987Z,8.30
2018-06-12T08:45:44.739Z,6.30
2018-06-12T08:48:13.137Z,7.30
2018-06-12T08:53:38.607Z,7.97
2018-06-12T08:56:07.466Z,6.73
2018-06-12T08:58:36.297Z,7.20
2018-06-12T09:01:05.123Z,7.07
2018-06-12T09:03:33.979Z,7.43
2018-06-12T09:06:02.366Z,8.57
2018-06-12T09:08:31.166Z,4.80
2018-06-12T09:10:59.981Z,3.47
2018-06-12T09:13:28.757Z,9.67
2018-06-12T09:15:57.542Z,6.97
2018-06-12T09:18:26.324Z,8.47
2018-06-12T09:20:55.099Z,10.13
2018-06-12T09:23:24.316Z,5.93
2018-06-12T09:25:52.684Z,8.47
2018-06-12T09:28:21.425Z,5.83
2018-06-12T09:30:49.823Z,6.30
2018-06-12T09:33:18.560Z,8.10
2018-06-12T09:35:47.375Z,7.30
2018-06-12T09:38:16.191Z,6.90
2018-06-12T09:40:44.999Z,8.10
2018-06-12T09:43:13.408Z,4.90
2018-06-12T09:45:42.623Z,6.57
2018-06-12T09:48:11.017Z,7.50
2018-06-12T09:50:39.767Z,4.70
2018-06-12T09:53:08.591Z,3.87
2018-06-12T09:55:36.980Z,4.87
2018-06-12T09:58:05.831Z,6.63
2018-06-12T10:00:39.814Z,6.63
2018-06-12T10:03:08.766Z,5.53
2018-06-12T10:05:37.556Z,9.17
2018-06-12T10:08:06.350Z,4.23
2018-06-12T10:10:34.746Z,6.23
2018-06-12T10:13:03.544Z,10.83
2018-06-12T10:15:32.363Z,9.97
2018-06-12T10:18:00.754Z,4.27
2018-06-12T10:20:29.174Z,8.60
2018-06-12T10:22:57.561Z,8.27
2018-06-12T10:25:26.394Z,4.53
2018-06-12T10:27:55.172Z,6.43
2018-06-12T10:30:24.011Z,6.60
2018-06-12T10:32:52.844Z,6.50
2018-06-12T10:35:21.698Z,4.07
2018-06-12T10:37:50.134Z,7.10
2018-06-12T10:40:18.893Z,7.80
2018-06-12T10:42:47.776Z,5.50
2018-06-12T10:45:16.588Z,7.90
2018-06-12T10:47:44.980Z,5.83
2018-06-12T10:50:13.786Z,8.57
2018-06-12T10:52:42.188Z,8.20
2018-06-12T10:55:10.641Z,3.63
2018-06-12T10:57:39.463Z,7.50
2018-06-12T11:00:08.517Z,5.07
2018-06-12T11:02:36.904Z,6.63
2018-06-12T11:05:05.746Z,6.63
2018-06-12T11:07:34.560Z,11.27
2018-06-12T11:10:03.452Z,4.53
2018-06-12T11:12:32.363Z,4.70
2018-06-12T11:15:01.206Z,3.83
2018-06-12T11:17:29.996Z,6.33
2018-06-12T11:19:58.827Z,7.03
2018-06-12T11:22:27.619Z,8.53
2018-06-12T11:24:56.436Z,11.07
2018-06-12T11:27:25.356Z,8.80
2018-06-12T11:29:54.122Z,6.10
2018-06-12T11:32:23.369Z,5.00
2018-06-12T11:34:52.196Z,5.33
2018-06-12T11:37:20.608Z,7.23
2018-06-12T11:39:49.046Z,9.93
2018-06-12T11:42:17.507Z,7.20
2018-06-12T11:44:46.363Z,4.93
2018-06-12T11:47:15.122Z,5.87
2018-06-12T11:49:43.961Z,5.33
2018-06-12T11:52:12.338Z,6.50
2018-06-12T11:54:42.746Z,5.73
2018-06-12T11:57:11.543Z,4.77
2018-06-12T11:59:40.385Z,5.10
2018-06-12T12:02:09.210Z,8.57
2018-06-12T12:04:37.696Z,8.87
2018-06-12T12:07:06.518Z,13.30
2018-06-12T12:09:35.350Z,9.07
2018-06-12T12:12:03.768Z,7.03
2018-06-12T12:14:32.588Z,7.20
2018-06-12T12:17:01.408Z,6.60
2018-06-12T12:19:30.228Z,7.30
2018-06-12T12:21:58.628Z,7.50
2018-06-12T12:24:27.040Z,14.13
2018-06-12T12:26:55.831Z,11.37
2018-06-12T12:29:24.208Z,9.20
2018-06-12T12:31:52.628Z,6.60
2018-06-12T12:34:21.450Z,8.33
2018-06-12T12:36:49.846Z,5.83
2018-06-12T12:39:18.641Z,6.77
2018-06-12T12:41:47.818Z,6.67
2018-06-12T12:44:16.632Z,7.43
2018-06-12T12:46:45.419Z,5.10
2018-06-12T12:49:14.239Z,6.00
2018-06-12T12:51:43.009Z,4.97
2018-06-12T12:54:11.976Z,6.77
2018-06-12T12:56:40.394Z,6.00
2018-06-12T13:01:37.146Z,5.70
2018-06-12T13:04:06.043Z,6.70
2018-06-12T13:06:34.887Z,7.37
2018-06-12T13:09:05.077Z,7.27
2018-06-12T13:11:33.450Z,4.70
2018-06-12T13:14:02.028Z,5.77
2018-06-12T13:16:30.414Z,6.93
2018-06-12T13:18:58.783Z,7.23
2018-06-12T13:21:27.531Z,11.57
2018-06-12T13:23:56.309Z,6.23
2018-06-12T13:26:25.088Z,5.33
2018-06-12T13:28:53.496Z,8.13
2018-06-12T13:31:22.308Z,7.53
2018-06-12T13:33:51.160Z,9.13
2018-06-12T13:36:19.559Z,5.23
2018-06-12T13:38:48.336Z,4.40
2018-06-12T13:41:17.157Z,5.93
2018-06-12T13:43:45.541Z,4.47
2018-06-12T13:46:13.970Z,9.63
2018-06-12T13:48:42.358Z,6.00
2018-06-12T13:51:11.167Z,4.37
2018-06-12T13:53:39.978Z,7.50
2018-06-12T13:56:08.947Z,6.73
2018-06-12T13:58:37.332Z,6.17
2018-06-12T14:01:06.197Z,7.67
2018-06-12T14:03:34.582Z,5.23
2018-06-12T14:06:03.440Z,4.67
2018-06-12T14:08:32.266Z,9.27
2018-06-12T14:11:00.655Z,5.87
2018-06-12T14:13:29.517Z,3.70
2018-06-12T14:15:58.260Z,3.13
2018-06-12T14:18:27.075Z,4.43
2018-06-12T14:20:55.900Z,5.60
2018-06-12T14:23:24.709Z,7.13
2018-06-12T14:25:53.531Z,5.90
2018-06-12T14:28:22.256Z,4.10
2018-06-12T14:30:51.155Z,7.53
2018-06-12T14:33:19.953Z,5.00
2018-06-12T14:35:48.742Z,5.70
2018-06-12T14:38:17.273Z,4.10
2018-06-12T14:40:46.102Z,3.60
2018-06-12T14:43:14.523Z,9.23
2018-06-12T14:45:43.317Z,6.50
2018-06-12T14:48:12.243Z,5.80
2018-06-12T14:50:40.625Z,7.07
2018-06-12T14:53:09.367Z,4.90
2018-06-12T14:55:38.265Z,6.60
2018-06-12T14:58:06.707Z,6.50
2018-06-12T15:00:35.146Z,6.47
2018-06-12T15:03:03.935Z,3.67
2018-06-12T15:05:32.748Z,6.63
2018-06-12T15:08:01.545Z,9.53
2018-06-12T15:10:29.960Z,4.47
2018-06-12T15:12:58.784Z,8.93
2018-06-12T15:15:27.631Z,6.43
2018-06-12T15:17:56.413Z,10.40
2018-06-12T15:20:24.787Z,8.17
2018-06-12T15:22:53.644Z,4.10
2018-06-12T15:25:22.495Z,5.37
2018-06-12T15:27:51.342Z,6.87
2018-06-12T15:30:19.782Z,4.57
2018-06-12T15:32:48.596Z,8.47
2018-06-12T15:35:17.397Z,4.07
2018-06-12T15:37:45.813Z,10.40
2018-06-12T15:40:14.182Z,8.90
2018-06-12T15:42:42.989Z,8.60
2018-06-12T15:45:11.775Z,5.57
2018-06-12T15:47:40.152Z,5.17
2018-06-12T15:50:08.574Z,6.03
2018-06-12T15:52:37.396Z,4.00
2018-06-12T15:55:05.827Z,8.53
2018-06-12T15:57:34.592Z,6.77
2018-06-12T16:00:03.813Z,8.27
2018-06-12T16:02:32.595Z,7.17
2018-06-12T16:05:01.327Z,5.23
2018-06-12T16:07:29.779Z,4.47
2018-06-12T16:09:58.614Z,4.57
2018-06-12T16:12:27.490Z,9.50
2018-06-12T16:14:55.918Z,7.00
2018-06-12T16:17:24.334Z,7.87
2018-06-12T16:19:53.284Z,7.17
2018-06-12T16:22:21.678Z,6.63
2018-06-12T16:24:50.068Z,9.80
2018-06-12T16:27:18.907Z,10.50
2018-06-12T16:29:47.344Z,7.40
2018-06-12T16:32:16.133Z,7.83
2018-06-12T16:34:44.955Z,8.53
2018-06-12T16:37:13.340Z,4.87
2018-06-12T16:39:41.757Z,4.17
2018-06-12T16:42:10.977Z,5.13
2018-06-12T16:44:39.358Z,5.73
2018-06-12T16:47:07.749Z,9.17
2018-06-12T16:49:36.533Z,6.20
2018-06-12T16:52:05.041Z,6.10
2018-06-12T16:54:33.924Z,7.33
2018-06-12T16:57:02.721Z,5.03
2018-06-12T16:59:31.108Z,6.57
2018-06-12T17:01:59.944Z,5.70
2018-06-12T17:04:28.402Z,7.67
2018-06-12T17:06:57.240Z,6.43
2018-06-12T17:09:26.116Z,7.67
2018-06-12T17:11:54.492Z,4.87
2018-06-12T17:14:23.316Z,6.10
2018-06-12T17:16:52.112Z,8.20
2018-06-12T17:19:20.579Z,6.80
2018-06-12T17:21:49.010Z,7.60
2018-06-12T17:24:17.401Z,8.73
2018-06-12T17:26:46.759Z,8.67
2018-06-12T17:29:16.975Z,6.23
2018-06-12T17:31:46.184Z,7.10
2018-06-12T17:34:16.507Z,6.70
2018-06-12T17:36:46.155Z,6.30
2018-06-12T17:39:15.809Z,6.50
2018-06-12T17:41:45.410Z,4.37
2018-06-12T17:44:15.113Z,4.67
2018-06-12T17:46:44.781Z,5.03
2018-06-12T17:49:13.229Z,9.00
2018-06-12T17:51:41.658Z,6.73
2018-06-12T17:54:10.100Z,6.73
2018-06-12T17:56:38.622Z,4.77
2018-06-12T17:59:07.001Z,6.80
2018-06-12T18:01:35.389Z,8.37
2018-06-12T18:04:03.822Z,4.50
2018-06-12T18:06:32.638Z,6.43
2018-06-12T18:09:01.477Z,5.43
2018-06-12T18:11:30.247Z,5.57
2018-06-12T18:13:59.200Z,4.47
2018-06-12T18:16:28.171Z,11.27
2018-06-12T18:18:56.558Z,5.17
2018-06-12T18:21:25.491Z,17.07
2018-06-12T18:23:54.275Z,7.47
2018-06-12T18:26:22.785Z,6.13
2018-06-12T18:28:51.203Z,5.20
2018-06-12T18:31:19.564Z,5.73
2018-06-12T18:33:48.469Z,8.70
2018-06-12T18:36:16.902Z,4.83
2018-06-12T18:38:45.291Z,6.37
2018-06-12T18:41:13.769Z,6.00
2018-06-12T18:43:42.295Z,6.97
2018-06-12T18:46:11.240Z,6.20
2018-06-12T18:48:40.026Z,7.07
2018-06-12T18:51:09.203Z,5.07
2018-06-12T18:53:38.102Z,6.90
2018-06-12T18:56:06.594Z,5.63
2018-06-12T18:58:35.071Z,3.97
2018-06-12T19:01:03.592Z,9.43
2018-06-12T19:03:32.514Z,6.97
2018-06-12T19:06:01.682Z,4.80
2018-06-12T19:08:30.251Z,6.87
2018-06-12T19:10:58.834Z,4.10
2018-06-12T19:13:27.403Z,6.00
2018-06-12T19:15:55.879Z,6.07
2018-06-12T19:18:24.824Z,7.63
2018-06-12T19:20:53.813Z,3.90
2018-06-12T19:23:22.519Z,5.17
2018-06-12T19:25:51.534Z,4.60
2018-06-12T19:28:20.527Z,6.83
2018-06-12T19:30:48.982Z,3.30
2018-06-12T19:33:17.523Z,6.60
2018-06-12T19:35:46.462Z,5.17
2018-06-12T19:38:15.637Z,4.87
2018-06-12T19:40:44.243Z,4.97
2018-06-12T19:43:13.864Z,4.83
2018-06-12T19:45:42.717Z,5.27
2018-06-12T19:48:12.304Z,6.40
2018-06-12T19:50:41.124Z,6.27
2018-06-12T19:53:11.642Z,3.20
2018-06-12T19:55:40.208Z,4.23
2018-06-12T19:58:09.571Z,5.37
2018-06-12T20:00:38.406Z,3.70
2018-06-12T20:03:07.009Z,5.60
2018-06-12T20:05:35.414Z,5.10
2018-06-12T20:08:04.355Z,5.20
2018-06-12T20:10:35.850Z,7.97
2018-06-12T20:13:04.359Z,4.37
2018-06-12T20:15:33.049Z,5.60
2018-06-12T20:18:01.522Z,5.13
2018-06-12T20:20:29.974Z,2.47
2018-06-12T20:22:58.388Z,4.60
2018-06-12T20:25:28.837Z,5.47
2018-06-12T20:27:57.278Z,2.83
2018-06-12T20:30:26.142Z,3.07
2018-06-12T20:32:54.964Z,5.93
2018-06-12T20:35:23.971Z,6.50
2018-06-12T20:37:52.790Z,4.00
2018-06-12T20:40:21.672Z,2.93
2018-06-12T20:42:50.316Z,4.00
2018-06-12T20:45:18.780Z,4.27
2018-06-12T20:47:47.351Z,4.47
2018-06-12T20:50:15.850Z,4.30
2018-06-12T20:52:44.810Z,3.03
2018-06-12T20:55:13.927Z,3.00
2018-06-12T20:57:42.402Z,4.87
2018-06-12T21:00:11.260Z,4.80
2018-06-12T21:02:39.929Z,4.13
2018-06-12T21:05:09.174Z,3.07
2018-06-12T21:07:38.119Z,4.77
2018-06-12T21:10:06.663Z,8.07
2018-06-12T21:12:35.992Z,4.77
2018-06-12T21:15:04.808Z,6.57
2018-06-12T21:17:33.587Z,4.67
2018-06-12T21:20:02.029Z,8.20
2018-06-12T21:22:31.377Z,7.30
2018-06-12T21:24:59.788Z,5.80
2018-06-12T21:27:28.510Z,4.47
2018-06-12T21:29:57.834Z,6.07
2018-06-12T21:32:26.214Z,7.10
2018-06-12T21:34:54.645Z,6.67
2018-06-12T21:37:23.127Z,4.63
2018-06-12T21:39:51.658Z,5.13
2018-06-12T21:42:21.149Z,5.77
2018-06-12T21:44:49.549Z,6.20
2018-06-12T21:47:18.330Z,6.73
2018-06-12T21:49:46.798Z,4.00
2018-06-12T21:52:15.577Z,4.50
2018-06-12T21:54:43.992Z,5.93
2018-06-12T21:57:12.389Z,5.23
2018-06-12T21:59:40.812Z,5.67
2018-06-12T22:02:09.629Z,4.40
2018-06-12T22:04:38.012Z,4.43
2018-06-12T22:07:06.801Z,4.60
2018-06-12T22:09:35.590Z,4.73
2018-06-12T22:12:04.556Z,3.63
2018-06-12T22:14:32.993Z,4.20
2018-06-12T22:17:01.774Z,5.67
2018-06-12T22:19:30.172Z,6.27
2018-06-12T22:21:58.563Z,4.00
2018-06-12T22:24:27.074Z,5.10
2018-06-12T22:26:55.995Z,3.70
2018-06-12T22:29:24.374Z,6.43
2018-06-12T22:31:53.213Z,5.00
2018-06-12T22:34:21.998Z,4.30
2018-06-12T22:36:50.807Z,3.67
2018-06-12T22:39:19.175Z,5.03
2018-06-12T22:41:47.960Z,3.13
2018-06-12T22:44:16.743Z,4.87
2018-06-12T22:46:45.610Z,5.87
2018-06-12T22:49:13.956Z,6.57
2018-06-12T22:51:42.769Z,3.37
2018-06-12T22:54:11.579Z,4.53
2018-06-12T22:56:40.375Z,3.43
2018-06-12T22:59:09.177Z,5.90
2018-06-12T23:01:37.976Z,7.23
2018-06-12T23:04:06.353Z,3.47
2018-06-12T23:06:34.768Z,6.90
2018-06-12T23:09:03.311Z,5.10
2018-06-12T23:11:31.740Z,4.37
2018-06-12T23:14:00.174Z,7.90
2018-06-12T23:16:28.539Z,7.03
2018-06-12T23:18:56.994Z,5.90
2018-06-12T23:21:48.503Z,6.27
2018-06-12T23:24:16.919Z,9.47
2018-06-12T23:26:45.297Z,4.47
2018-06-12T23:29:13.747Z,5.20
2018-06-12T23:31:42.121Z,7.03
2018-06-12T23:34:10.558Z,9.40
2018-06-12T23:36:39.356Z,4.53
2018-06-12T23:39:09.049Z,4.33
2018-06-12T23:41:37.856Z,6.47
2018-06-12T23:44:06.717Z,5.23
2018-06-12T23:46:35.090Z,7.87
2018-06-12T23:49:03.944Z,5.87
2018-06-12T23:51:32.752Z,3.13
2018-06-12T23:54:01.123Z,10.80
2018-06-12T23:56:29.529Z,3.90
2018-06-12T23:58:58.317Z,7.57
